sensor_id;sensor_type;location;lat;lon;timestamp;P1;durP1;ratioP1;P2;durP2;ratioP2
62037;SDS011;47991;42.974;12.082;2023-05-08T00:00:02;5.90;;;2.20;;
62037;SDS011;47991;42.974;12.082;2023-05-08T00:02:44;4.40;;;2.30;;
62037;SDS011;47991;42.974;12.082;2023-05-08T00:05:11;5.10;;;2.10;;
62037;SDS011;47991;42.974;12.082;2023-05-08T00:07:52;4.80;;;2.40;;
62037;SDS011;47991;42.974;12.082;2023-05-08T00:14:09;3.50;;;2.10;;
62037;SDS011;47991;42.974;12.082;2023-05-08T00:16:50;5.70;;;2.20;;
62037;SDS011;47991;42.974;12.082;2023-05-08T00:19:16;4.90;;;2.20;;
62037;SDS011;47991;42.974;12.082;2023-05-08T00:21:43;5.00;;;2.40;;
62037;SDS011;47991;42.974;12.082;2023-05-08T00:24:24;5.70;;;2.60;;
62037;SDS011;47991;42.974;12.082;2023-05-08T00:26:52;4.00;;;2.20;;
62037;SDS011;47991;42.974;12.082;2023-05-08T00:29:33;3.70;;;2.00;;
62037;SDS011;47991;42.974;12.082;2023-05-08T00:32:00;4.50;;;2.20;;
62037;SDS011;47991;42.974;12.082;2023-05-08T00:34:41;3.70;;;2.20;;
62037;SDS011;47991;42.974;12.082;2023-05-08T00:37:22;4.10;;;2.10;;
62037;SDS011;47991;42.974;12.082;2023-05-08T00:40:03;4.40;;;2.30;;
62037;SDS011;47991;42.974;12.082;2023-05-08T00:42:44;4.50;;;2.20;;
62037;SDS011;47991;42.974;12.082;2023-05-08T00:45:11;5.30;;;2.10;;
62037;SDS011;47991;42.974;12.082;2023-05-08T00:47:52;5.10;;;2.30;;
62037;SDS011;47991;42.974;12.082;2023-05-08T00:50:19;3.80;;;2.00;;
62037;SDS011;47991;42.974;12.082;2023-05-08T00:53:00;4.50;;;2.40;;
62037;SDS011;47991;42.974;12.082;2023-05-08T00:55:29;4.10;;;2.20;;
62037;SDS011;47991;42.974;12.082;2023-05-08T00:58:12;4.00;;;2.10;;
62037;SDS011;47991;42.974;12.082;2023-05-08T01:00:59;3.70;;;2.00;;
62037;SDS011;47991;42.974;12.082;2023-05-08T01:03:42;3.70;;;2.00;;
62037;SDS011;47991;42.974;12.082;2023-05-08T01:06:10;3.80;;;2.30;;
62037;SDS011;47991;42.974;12.082;2023-05-08T01:08:50;3.00;;;1.90;;
62037;SDS011;47991;42.974;12.082;2023-05-08T01:17:08;4.70;;;2.40;;
62037;SDS011;47991;42.974;12.082;2023-05-08T01:34:48;3.90;;;2.00;;
62037;SDS011;47991;42.974;12.082;2023-05-08T01:37:31;4.70;;;2.10;;
62037;SDS011;47991;42.974;12.082;2023-05-08T01:43:34;3.60;;;2.00;;
62037;SDS011;47991;42.974;12.082;2023-05-08T01:46:31;4.00;;;2.10;;
62037;SDS011;47991;42.974;12.082;2023-05-08T01:52:57;4.50;;;2.00;;
62037;SDS011;47991;42.974;12.082;2023-05-08T01:55:29;4.70;;;2.10;;
62037;SDS011;47991;42.974;12.082;2023-05-08T01:58:00;5.50;;;2.50;;
62037;SDS011;47991;42.974;12.082;2023-05-08T02:00:44;3.20;;;2.10;;
62037;SDS011;47991;42.974;12.082;2023-05-08T02:03:26;3.40;;;1.90;;
62037;SDS011;47991;42.974;12.082;2023-05-08T02:06:02;4.20;;;2.20;;
62037;SDS011;47991;42.974;12.082;2023-05-08T02:08:31;3.70;;;2.00;;
62037;SDS011;47991;42.974;12.082;2023-05-08T02:11:14;3.40;;;1.90;;
62037;SDS011;47991;42.974;12.082;2023-05-08T02:13:43;2.90;;;1.80;;
62037;SDS011;47991;42.974;12.082;2023-05-08T02:16:26;3.70;;;2.20;;
62037;SDS011;47991;42.974;12.082;2023-05-08T02:19:08;3.30;;;1.90;;
62037;SDS011;47991;42.974;12.082;2023-05-08T02:21:37;2.90;;;1.80;;
62037;SDS011;47991;42.974;12.082;2023-05-08T02:24:19;4.00;;;2.00;;
62037;SDS011;47991;42.974;12.082;2023-05-08T02:27:19;3.00;;;2.00;;
62037;SDS011;47991;42.974;12.082;2023-05-08T02:29:49;3.50;;;2.00;;
62037;SDS011;47991;42.974;12.082;2023-05-08T02:32:32;4.10;;;1.90;;
62037;SDS011;47991;42.974;12.082;2023-05-08T02:35:00;4.10;;;2.00;;
62037;SDS011;47991;42.974;12.082;2023-05-08T02:37:27;4.80;;;2.00;;
62037;SDS011;47991;42.974;12.082;2023-05-08T02:40:10;4.20;;;2.00;;
62037;SDS011;47991;42.974;12.082;2023-05-08T02:42:53;4.10;;;2.20;;
62037;SDS011;47991;42.974;12.082;2023-05-08T02:45:58;3.90;;;1.90;;
62037;SDS011;47991;42.974;12.082;2023-05-08T02:53:57;4.20;;;2.00;;
62037;SDS011;47991;42.974;12.082;2023-05-08T02:56:43;2.60;;;1.80;;
62037;SDS011;47991;42.974;12.082;2023-05-08T03:08:05;4.40;;;2.30;;
62037;SDS011;47991;42.974;12.082;2023-05-08T03:10:51;3.00;;;2.00;;
62037;SDS011;47991;42.974;12.082;2023-05-08T03:13:36;4.40;;;2.00;;
62037;SDS011;47991;42.974;12.082;2023-05-08T03:16:08;5.10;;;2.10;;
62037;SDS011;47991;42.974;12.082;2023-05-08T03:18:51;4.70;;;2.20;;
62037;SDS011;47991;42.974;12.082;2023-05-08T03:21:34;3.40;;;2.00;;
62037;SDS011;47991;42.974;12.082;2023-05-08T03:24:03;3.00;;;1.90;;
62037;SDS011;47991;42.974;12.082;2023-05-08T03:26:46;3.60;;;1.90;;
62037;SDS011;47991;42.974;12.082;2023-05-08T03:29:14;3.90;;;2.10;;
62037;SDS011;47991;42.974;12.082;2023-05-08T03:31:57;3.70;;;2.00;;
62037;SDS011;47991;42.974;12.082;2023-05-08T03:34:27;3.40;;;1.80;;
62037;SDS011;47991;42.974;12.082;2023-05-08T03:36:55;4.20;;;2.00;;
62037;SDS011;47991;42.974;12.082;2023-05-08T03:39:23;3.60;;;2.10;;
62037;SDS011;47991;42.974;12.082;2023-05-08T03:42:07;2.20;;;1.60;;
62037;SDS011;47991;42.974;12.082;2023-05-08T03:44:52;2.90;;;1.80;;
62037;SDS011;47991;42.974;12.082;2023-05-08T03:47:20;4.30;;;1.90;;
62037;SDS011;47991;42.974;12.082;2023-05-08T03:50:01;3.10;;;1.80;;
62037;SDS011;47991;42.974;12.082;2023-05-08T03:52:28;3.00;;;1.90;;
62037;SDS011;47991;42.974;12.082;2023-05-08T03:54:57;3.60;;;1.90;;
62037;SDS011;47991;42.974;12.082;2023-05-08T03:57:39;3.60;;;2.00;;
62037;SDS011;47991;42.974;12.082;2023-05-08T04:01:04;3.20;;;1.90;;
62037;SDS011;47991;42.974;12.082;2023-05-08T04:06:28;3.80;;;2.20;;
62037;SDS011;47991;42.974;12.082;2023-05-08T04:12:02;3.70;;;2.00;;
62037;SDS011;47991;42.974;12.082;2023-05-08T04:14:33;3.90;;;1.90;;
62037;SDS011;47991;42.974;12.082;2023-05-08T04:17:09;4.50;;;2.10;;
62037;SDS011;47991;42.974;12.082;2023-05-08T04:19:54;3.40;;;1.90;;
62037;SDS011;47991;42.974;12.082;2023-05-08T04:22:25;2.90;;;1.80;;
62037;SDS011;47991;42.974;12.082;2023-05-08T04:24:55;3.80;;;2.00;;
62037;SDS011;47991;42.974;12.082;2023-05-08T04:27:39;4.10;;;1.90;;
62037;SDS011;47991;42.974;12.082;2023-05-08T04:30:07;3.40;;;2.00;;
62037;SDS011;47991;42.974;12.082;2023-05-08T04:32:35;3.50;;;2.00;;
62037;SDS011;47991;42.974;12.082;2023-05-08T04:35:04;3.60;;;1.80;;
62037;SDS011;47991;42.974;12.082;2023-05-08T04:37:45;2.80;;;1.80;;
62037;SDS011;47991;42.974;12.082;2023-05-08T04:40:26;3.30;;;1.90;;
62037;SDS011;47991;42.974;12.082;2023-05-08T04:42:53;3.80;;;1.90;;
62037;SDS011;47991;42.974;12.082;2023-05-08T04:45:21;2.90;;;1.80;;
62037;SDS011;47991;42.974;12.082;2023-05-08T04:47:48;4.70;;;1.90;;
62037;SDS011;47991;42.974;12.082;2023-05-08T04:50:15;3.00;;;1.80;;
62037;SDS011;47991;42.974;12.082;2023-05-08T04:52:55;2.90;;;1.70;;
62037;SDS011;47991;42.974;12.082;2023-05-08T04:55:36;2.50;;;1.70;;
62037;SDS011;47991;42.974;12.082;2023-05-08T04:58:17;4.20;;;1.90;;
62037;SDS011;47991;42.974;12.082;2023-05-08T05:01:00;3.20;;;1.90;;
62037;SDS011;47991;42.974;12.082;2023-05-08T05:03:28;3.60;;;1.80;;
62037;SDS011;47991;42.974;12.082;2023-05-08T05:06:09;4.40;;;1.90;;
62037;SDS011;47991;42.974;12.082;2023-05-08T05:08:49;4.00;;;1.80;;
62037;SDS011;47991;42.974;12.082;2023-05-08T05:11:16;3.30;;;1.80;;
62037;SDS011;47991;42.974;12.082;2023-05-08T05:13:43;3.30;;;1.90;;
62037;SDS011;47991;42.974;12.082;2023-05-08T05:16:10;4.00;;;1.80;;
62037;SDS011;47991;42.974;12.082;2023-05-08T05:18:38;2.80;;;1.70;;
62037;SDS011;47991;42.974;12.082;2023-05-08T05:21:05;3.60;;;2.00;;
62037;SDS011;47991;42.974;12.082;2023-05-08T05:23:48;3.60;;;1.90;;
62037;SDS011;47991;42.974;12.082;2023-05-08T05:26:49;3.00;;;1.80;;
62037;SDS011;47991;42.974;12.082;2023-05-08T05:29:21;3.20;;;1.80;;
62037;SDS011;47991;42.974;12.082;2023-05-08T05:31:48;2.70;;;1.60;;
62037;SDS011;47991;42.974;12.082;2023-05-08T05:34:29;3.40;;;2.00;;
62037;SDS011;47991;42.974;12.082;2023-05-08T05:37:10;3.00;;;1.80;;
62037;SDS011;47991;42.974;12.082;2023-05-08T05:39:37;3.90;;;2.00;;
62037;SDS011;47991;42.974;12.082;2023-05-08T05:42:09;2.40;;;1.60;;
62037;SDS011;47991;42.974;12.082;2023-05-08T05:44:51;2.30;;;1.70;;
62037;SDS011;47991;42.974;12.082;2023-05-08T05:47:17;2.80;;;1.50;;
62037;SDS011;47991;42.974;12.082;2023-05-08T05:49:44;3.70;;;1.90;;
62037;SDS011;47991;42.974;12.082;2023-05-08T05:52:14;3.50;;;2.00;;
62037;SDS011;47991;42.974;12.082;2023-05-08T05:54:41;3.00;;;1.80;;
62037;SDS011;47991;42.974;12.082;2023-05-08T05:57:08;3.20;;;1.80;;
62037;SDS011;47991;42.974;12.082;2023-05-08T05:59:48;4.00;;;1.70;;
62037;SDS011;47991;42.974;12.082;2023-05-08T06:02:15;2.90;;;1.70;;
62037;SDS011;47991;42.974;12.082;2023-05-08T06:04:43;2.90;;;1.80;;
62037;SDS011;47991;42.974;12.082;2023-05-08T06:07:24;4.40;;;1.70;;
62037;SDS011;47991;42.974;12.082;2023-05-08T06:10:06;4.90;;;2.10;;
62037;SDS011;47991;42.974;12.082;2023-05-08T06:12:48;3.10;;;1.70;;
62037;SDS011;47991;42.974;12.082;2023-05-08T06:15:29;3.30;;;2.00;;
62037;SDS011;47991;42.974;12.082;2023-05-08T06:18:09;2.70;;;1.90;;
62037;SDS011;47991;42.974;12.082;2023-05-08T06:20:59;5.00;;;2.10;;
62037;SDS011;47991;42.974;12.082;2023-05-08T06:23:58;4.60;;;2.30;;
62037;SDS011;47991;42.974;12.082;2023-05-08T06:26:24;5.40;;;2.00;;
62037;SDS011;47991;42.974;12.082;2023-05-08T06:28:51;3.50;;;1.80;;
62037;SDS011;47991;42.974;12.082;2023-05-08T06:31:32;5.60;;;2.10;;
62037;SDS011;47991;42.974;12.082;2023-05-08T06:34:00;4.80;;;2.00;;
62037;SDS011;47991;42.974;12.082;2023-05-08T06:36:42;3.30;;;1.80;;
62037;SDS011;47991;42.974;12.082;2023-05-08T06:39:09;8.40;;;2.40;;
62037;SDS011;47991;42.974;12.082;2023-05-08T06:41:36;7.10;;;2.20;;
62037;SDS011;47991;42.974;12.082;2023-05-08T06:44:04;7.10;;;2.40;;
62037;SDS011;47991;42.974;12.082;2023-05-08T06:46:30;6.10;;;2.20;;
62037;SDS011;47991;42.974;12.082;2023-05-08T06:48:57;6.20;;;2.40;;
62037;SDS011;47991;42.974;12.082;2023-05-08T06:51:24;8.90;;;2.40;;
62037;SDS011;47991;42.974;12.082;2023-05-08T06:54:06;6.90;;;2.20;;
62037;SDS011;47991;42.974;12.082;2023-05-08T06:56:33;6.10;;;2.60;;
62037;SDS011;47991;42.974;12.082;2023-05-08T06:59:00;6.20;;;2.50;;
62037;SDS011;47991;42.974;12.082;2023-05-08T07:01:41;4.80;;;2.10;;
62037;SDS011;47991;42.974;12.082;2023-05-08T07:04:08;7.10;;;2.50;;
62037;SDS011;47991;42.974;12.082;2023-05-08T07:06:49;6.00;;;2.00;;
62037;SDS011;47991;42.974;12.082;2023-05-08T07:09:17;8.40;;;2.80;;
62037;SDS011;47991;42.974;12.082;2023-05-08T07:11:44;7.40;;;2.80;;
62037;SDS011;47991;42.974;12.082;2023-05-08T14:13:18;26.70;;;14.70;;
62037;SDS011;47991;42.974;12.082;2023-05-08T14:15:45;28.50;;;22.40;;
62037;SDS011;47991;42.974;12.082;2023-05-08T14:18:12;25.50;;;18.20;;
62037;SDS011;47991;42.974;12.082;2023-05-08T14:20:52;27.60;;;19.70;;
62037;SDS011;47991;42.974;12.082;2023-05-08T14:23:33;24.90;;;17.50;;
62037;SDS011;47991;42.974;12.082;2023-05-08T14:28:46;32.40;;;24.70;;
62037;SDS011;47991;42.974;12.082;2023-05-08T14:31:27;39.10;;;29.60;;
62037;SDS011;47991;42.974;12.082;2023-05-08T14:34:07;40.30;;;28.90;;
62037;SDS011;47991;42.974;12.082;2023-05-08T14:36:48;31.00;;;22.50;;
62037;SDS011;47991;42.974;12.082;2023-05-08T14:39:28;38.10;;;30.70;;
62037;SDS011;47991;42.974;12.082;2023-05-08T14:42:09;40.80;;;29.80;;
62037;SDS011;47991;42.974;12.082;2023-05-08T14:44:51;40.30;;;31.80;;
62037;SDS011;47991;42.974;12.082;2023-05-08T14:47:32;30.50;;;23.80;;
62037;SDS011;47991;42.974;12.082;2023-05-08T14:49:59;30.20;;;22.60;;
62037;SDS011;47991;42.974;12.082;2023-05-08T14:52:40;33.30;;;25.00;;
62037;SDS011;47991;42.974;12.082;2023-05-08T14:55:20;31.60;;;21.70;;
62037;SDS011;47991;42.974;12.082;2023-05-08T14:58:01;22.20;;;15.80;;
62037;SDS011;47991;42.974;12.082;2023-05-08T15:00:41;18.80;;;12.50;;
62037;SDS011;47991;42.974;12.082;2023-05-08T15:03:08;17.40;;;11.50;;
62037;SDS011;47991;42.974;12.082;2023-05-08T15:05:35;18.50;;;10.60;;
62037;SDS011;47991;42.974;12.082;2023-05-08T15:08:02;13.70;;;8.90;;
62037;SDS011;47991;42.974;12.082;2023-05-08T15:10:44;13.80;;;8.20;;
62037;SDS011;47991;42.974;12.082;2023-05-08T15:13:11;12.00;;;7.20;;
62037;SDS011;47991;42.974;12.082;2023-05-08T15:15:53;14.10;;;8.80;;
62037;SDS011;47991;42.974;12.082;2023-05-08T15:18:35;10.90;;;6.10;;
62037;SDS011;47991;42.974;12.082;2023-05-08T15:21:01;11.70;;;7.30;;
62037;SDS011;47991;42.974;12.082;2023-05-08T15:23:30;15.80;;;7.80;;
62037;SDS011;47991;42.974;12.082;2023-05-08T15:26:11;10.40;;;6.60;;
62037;SDS011;47991;42.974;12.082;2023-05-08T15:28:52;10.80;;;6.00;;
62037;SDS011;47991;42.974;12.082;2023-05-08T15:31:33;10.60;;;5.50;;
62037;SDS011;47991;42.974;12.082;2023-05-08T15:34:14;9.20;;;4.80;;
62037;SDS011;47991;42.974;12.082;2023-05-08T15:36:55;12.60;;;6.70;;
62037;SDS011;47991;42.974;12.082;2023-05-08T15:39:21;9.20;;;5.10;;
62037;SDS011;47991;42.974;12.082;2023-05-08T15:41:48;10.30;;;4.80;;
62037;SDS011;47991;42.974;12.082;2023-05-08T15:44:30;8.00;;;4.60;;
62037;SDS011;47991;42.974;12.082;2023-05-08T15:47:14;9.30;;;4.40;;
62037;SDS011;47991;42.974;12.082;2023-05-08T15:49:55;7.60;;;4.50;;
62037;SDS011;47991;42.974;12.082;2023-05-08T15:52:35;8.40;;;4.40;;
62037;SDS011;47991;42.974;12.082;2023-05-08T15:55:02;9.20;;;5.60;;
62037;SDS011;47991;42.974;12.082;2023-05-08T15:57:43;9.10;;;4.70;;
62037;SDS011;47991;42.974;12.082;2023-05-08T16:00:11;9.00;;;4.60;;
62037;SDS011;47991;42.974;12.082;2023-05-08T16:02:53;8.50;;;4.30;;
62037;SDS011;47991;42.974;12.082;2023-05-08T16:05:19;10.00;;;3.90;;
62037;SDS011;47991;42.974;12.082;2023-05-08T16:08:00;8.40;;;4.70;;
62037;SDS011;47991;42.974;12.082;2023-05-08T16:10:41;6.80;;;3.60;;
62037;SDS011;47991;42.974;12.082;2023-05-08T16:13:22;8.10;;;3.70;;
62037;SDS011;47991;42.974;12.082;2023-05-08T16:16:04;6.50;;;3.60;;
62037;SDS011;47991;42.974;12.082;2023-05-08T16:18:32;6.90;;;3.50;;
62037;SDS011;47991;42.974;12.082;2023-05-08T16:20:59;7.70;;;3.70;;
62037;SDS011;47991;42.974;12.082;2023-05-08T16:23:39;8.00;;;3.90;;
62037;SDS011;47991;42.974;12.082;2023-05-08T16:26:20;6.30;;;3.30;;
62037;SDS011;47991;42.974;12.082;2023-05-08T16:29:01;6.40;;;3.40;;
62037;SDS011;47991;42.974;12.082;2023-05-08T16:31:28;6.50;;;3.30;;
62037;SDS011;47991;42.974;12.082;2023-05-08T16:34:08;9.30;;;3.00;;
62037;SDS011;47991;42.974;12.082;2023-05-08T16:36:49;8.20;;;3.10;;
62037;SDS011;47991;42.974;12.082;2023-05-08T16:39:30;8.70;;;3.60;;
62037;SDS011;47991;42.974;12.082;2023-05-08T16:42:11;6.70;;;3.20;;
62037;SDS011;47991;42.974;12.082;2023-05-08T16:44:51;6.80;;;3.60;;
62037;SDS011;47991;42.974;12.082;2023-05-08T16:47:32;6.40;;;3.30;;
62037;SDS011;47991;42.974;12.082;2023-05-08T16:50:00;5.90;;;3.20;;
62037;SDS011;47991;42.974;12.082;2023-05-08T16:52:27;6.70;;;3.70;;
62037;SDS011;47991;42.974;12.082;2023-05-08T16:55:08;6.30;;;2.90;;
62037;SDS011;47991;42.974;12.082;2023-05-08T16:57:49;5.80;;;3.10;;
62037;SDS011;47991;42.974;12.082;2023-05-08T17:00:19;5.90;;;3.00;;
62037;SDS011;47991;42.974;12.082;2023-05-08T17:03:00;6.60;;;3.40;;
62037;SDS011;47991;42.974;12.082;2023-05-08T17:05:27;6.70;;;3.10;;
62037;SDS011;47991;42.974;12.082;2023-05-08T17:08:08;5.50;;;2.60;;
62037;SDS011;47991;42.974;12.082;2023-05-08T17:10:37;5.20;;;2.80;;
62037;SDS011;47991;42.974;12.082;2023-05-08T17:13:07;7.50;;;3.00;;
62037;SDS011;47991;42.974;12.082;2023-05-08T17:15:34;6.60;;;3.10;;
62037;SDS011;47991;42.974;12.082;2023-05-08T17:18:00;6.90;;;2.70;;
62037;SDS011;47991;42.974;12.082;2023-05-08T17:20:27;6.40;;;3.30;;
62037;SDS011;47991;42.974;12.082;2023-05-08T17:23:08;7.10;;;3.10;;
62037;SDS011;47991;42.974;12.082;2023-05-08T17:25:35;6.50;;;2.90;;
62037;SDS011;47991;42.974;12.082;2023-05-08T17:28:02;6.20;;;3.30;;
62037;SDS011;47991;42.974;12.082;2023-05-08T17:30:43;8.00;;;3.60;;
62037;SDS011;47991;42.974;12.082;2023-05-08T17:33:10;7.30;;;4.00;;
62037;SDS011;47991;42.974;12.082;2023-05-08T17:35:37;7.70;;;4.10;;
62037;SDS011;47991;42.974;12.082;2023-05-08T17:38:18;8.90;;;4.50;;
62037;SDS011;47991;42.974;12.082;2023-05-08T17:40:58;10.30;;;6.20;;
62037;SDS011;47991;42.974;12.082;2023-05-08T17:43:25;44.00;;;19.10;;
62037;SDS011;47991;42.974;12.082;2023-05-08T17:46:07;146.60;;;43.80;;
62037;SDS011;47991;42.974;12.082;2023-05-08T17:48:34;297.60;;;113.10;;
62037;SDS011;47991;42.974;12.082;2023-05-08T17:51:02;336.40;;;133.60;;
62037;SDS011;47991;42.974;12.082;2023-05-08T17:53:29;376.60;;;153.70;;
62037;SDS011;47991;42.974;12.082;2023-05-08T17:56:11;357.60;;;154.90;;
62037;SDS011;47991;42.974;12.082;2023-05-08T17:58:52;317.80;;;135.30;;
62037;SDS011;47991;42.974;12.082;2023-05-08T18:01:20;254.10;;;118.50;;
62037;SDS011;47991;42.974;12.082;2023-05-08T18:03:48;245.60;;;108.90;;
62037;SDS011;47991;42.974;12.082;2023-05-08T18:06:18;251.40;;;111.10;;
62037;SDS011;47991;42.974;12.082;2023-05-08T18:08:45;232.60;;;104.30;;
62037;SDS011;47991;42.974;12.082;2023-05-08T18:11:16;227.70;;;102.60;;
62037;SDS011;47991;42.974;12.082;2023-05-08T18:14:02;201.10;;;93.00;;
62037;SDS011;47991;42.974;12.082;2023-05-08T18:16:29;198.40;;;88.90;;
62037;SDS011;47991;42.974;12.082;2023-05-08T18:19:10;210.00;;;91.60;;
62037;SDS011;47991;42.974;12.082;2023-05-08T18:21:51;155.60;;;70.00;;
62037;SDS011;47991;42.974;12.082;2023-05-08T18:24:17;152.90;;;77.70;;
62037;SDS011;47991;42.974;12.082;2023-05-08T18:26:44;147.20;;;67.20;;
62037;SDS011;47991;42.974;12.082;2023-05-08T18:29:26;134.00;;;65.60;;
62037;SDS011;47991;42.974;12.082;2023-05-08T18:32:07;141.60;;;69.10;;
62037;SDS011;47991;42.974;12.082;2023-05-08T18:34:34;135.60;;;69.50;;
62037;SDS011;47991;42.974;12.082;2023-05-08T18:37:00;124.70;;;62.80;;
62037;SDS011;47991;42.974;12.082;2023-05-08T18:39:27;124.00;;;61.60;;
62037;SDS011;47991;42.974;12.082;2023-05-08T18:42:08;114.70;;;61.90;;
62037;SDS011;47991;42.974;12.082;2023-05-08T18:44:34;115.20;;;62.30;;
62037;SDS011;47991;42.974;12.082;2023-05-08T18:47:01;128.50;;;66.30;;
62037;SDS011;47991;42.974;12.082;2023-05-08T18:49:44;123.90;;;67.00;;
62037;SDS011;47991;42.974;12.082;2023-05-08T18:52:12;120.00;;;65.50;;
62037;SDS011;47991;42.974;12.082;2023-05-08T18:54:40;119.10;;;64.70;;
62037;SDS011;47991;42.974;12.082;2023-05-08T18:57:07;120.80;;;63.30;;
62037;SDS011;47991;42.974;12.082;2023-05-08T18:59:33;121.20;;;65.50;;
62037;SDS011;47991;42.974;12.082;2023-05-08T19:02:14;116.50;;;67.20;;
62037;SDS011;47991;42.974;12.082;2023-05-08T19:04:54;123.30;;;70.80;;
62037;SDS011;47991;42.974;12.082;2023-05-08T19:07:21;124.70;;;66.90;;
62037;SDS011;47991;42.974;12.082;2023-05-08T19:10:02;119.70;;;70.90;;
62037;SDS011;47991;42.974;12.082;2023-05-08T19:12:43;131.50;;;75.80;;
62037;SDS011;47991;42.974;12.082;2023-05-08T19:15:24;113.30;;;71.90;;
62037;SDS011;47991;42.974;12.082;2023-05-08T19:18:05;123.60;;;70.00;;
62037;SDS011;47991;42.974;12.082;2023-05-08T19:20:32;119.40;;;72.30;;
62037;SDS011;47991;42.974;12.082;2023-05-08T19:23:12;116.30;;;64.00;;
62037;SDS011;47991;42.974;12.082;2023-05-08T19:25:53;114.50;;;67.20;;
62037;SDS011;47991;42.974;12.082;2023-05-08T19:28:34;114.80;;;67.90;;
62037;SDS011;47991;42.974;12.082;2023-05-08T19:31:15;91.00;;;53.30;;
62037;SDS011;47991;42.974;12.082;2023-05-08T19:33:56;77.90;;;47.90;;
62037;SDS011;47991;42.974;12.082;2023-05-08T19:36:36;88.70;;;52.30;;
62037;SDS011;47991;42.974;12.082;2023-05-08T19:39:03;87.80;;;52.90;;
62037;SDS011;47991;42.974;12.082;2023-05-08T19:41:44;79.20;;;48.30;;
62037;SDS011;47991;42.974;12.082;2023-05-08T19:44:11;84.90;;;51.30;;
62037;SDS011;47991;42.974;12.082;2023-05-08T19:46:38;81.80;;;47.80;;
62037;SDS011;47991;42.974;12.082;2023-05-08T19:49:04;96.20;;;57.30;;
62037;SDS011;47991;42.974;12.082;2023-05-08T19:51:31;93.40;;;56.50;;
62037;SDS011;47991;42.974;12.082;2023-05-08T19:53:58;85.10;;;54.20;;
62037;SDS011;47991;42.974;12.082;2023-05-08T19:56:25;115.00;;;76.60;;
62037;SDS011;47991;42.974;12.082;2023-05-08T19:58:51;99.70;;;65.50;;
62037;SDS011;47991;42.974;12.082;2023-05-08T20:01:18;96.60;;;60.80;;
62037;SDS011;47991;42.974;12.082;2023-05-08T20:03:58;88.10;;;59.20;;
62037;SDS011;47991;42.974;12.082;2023-05-08T20:06:25;102.40;;;67.00;;
62037;SDS011;47991;42.974;12.082;2023-05-08T20:08:52;107.50;;;69.80;;
62037;SDS011;47991;42.974;12.082;2023-05-08T20:11:20;119.50;;;73.50;;
62037;SDS011;47991;42.974;12.082;2023-05-08T20:13:47;130.60;;;85.30;;
62037;SDS011;47991;42.974;12.082;2023-05-08T20:16:27;116.10;;;78.90;;
62037;SDS011;47991;42.974;12.082;2023-05-08T20:19:08;126.90;;;88.50;;
62037;SDS011;47991;42.974;12.082;2023-05-08T20:21:34;106.60;;;70.70;;
62037;SDS011;47991;42.974;12.082;2023-05-08T20:24:15;120.90;;;81.30;;
62037;SDS011;47991;42.974;12.082;2023-05-08T20:26:56;127.30;;;93.30;;
62037;SDS011;47991;42.974;12.082;2023-05-08T20:29:23;113.10;;;77.50;;
62037;SDS011;47991;42.974;12.082;2023-05-08T20:32:03;118.10;;;82.40;;
62037;SDS011;47991;42.974;12.082;2023-05-08T20:34:32;117.80;;;79.80;;
62037;SDS011;47991;42.974;12.082;2023-05-08T20:37:13;111.70;;;76.70;;
62037;SDS011;47991;42.974;12.082;2023-05-08T20:39:41;119.60;;;78.00;;
62037;SDS011;47991;42.974;12.082;2023-05-08T20:42:08;116.60;;;77.70;;
62037;SDS011;47991;42.974;12.082;2023-05-08T20:44:48;105.90;;;77.70;;
62037;SDS011;47991;42.974;12.082;2023-05-08T20:47:29;112.20;;;73.20;;
62037;SDS011;47991;42.974;12.082;2023-05-08T20:50:09;112.80;;;75.90;;
62037;SDS011;47991;42.974;12.082;2023-05-08T20:52:37;100.70;;;73.60;;
62037;SDS011;47991;42.974;12.082;2023-05-08T20:55:03;100.30;;;71.80;;
62037;SDS011;47991;42.974;12.082;2023-05-08T20:57:44;100.10;;;69.00;;
62037;SDS011;47991;42.974;12.082;2023-05-08T21:00:11;101.00;;;66.80;;
62037;SDS011;47991;42.974;12.082;2023-05-08T21:02:38;93.00;;;62.40;;
62037;SDS011;47991;42.974;12.082;2023-05-08T21:05:23;89.80;;;62.40;;
62037;SDS011;47991;42.974;12.082;2023-05-08T21:08:04;93.20;;;62.70;;
62037;SDS011;47991;42.974;12.082;2023-05-08T21:10:31;87.50;;;60.30;;
62037;SDS011;47991;42.974;12.082;2023-05-08T21:13:12;86.80;;;57.70;;
62037;SDS011;47991;42.974;12.082;2023-05-08T21:15:52;88.70;;;62.30;;
62037;SDS011;47991;42.974;12.082;2023-05-08T21:18:19;84.00;;;61.00;;
62037;SDS011;47991;42.974;12.082;2023-05-08T21:20:59;91.20;;;62.60;;
62037;SDS011;47991;42.974;12.082;2023-05-08T21:23:27;78.80;;;56.10;;
62037;SDS011;47991;42.974;12.082;2023-05-08T21:26:08;80.10;;;57.00;;
62037;SDS011;47991;42.974;12.082;2023-05-08T21:28:49;84.00;;;56.20;;
62037;SDS011;47991;42.974;12.082;2023-05-08T21:31:17;80.90;;;57.20;;
62037;SDS011;47991;42.974;12.082;2023-05-08T21:33:58;81.80;;;56.20;;
62037;SDS011;47991;42.974;12.082;2023-05-08T21:36:39;78.60;;;53.70;;
62037;SDS011;47991;42.974;12.082;2023-05-08T21:39:19;74.70;;;55.50;;
62037;SDS011;47991;42.974;12.082;2023-05-08T21:41:46;72.80;;;53.50;;
62037;SDS011;47991;42.974;12.082;2023-05-08T21:44:27;73.10;;;51.60;;
62037;SDS011;47991;42.974;12.082;2023-05-08T21:46:53;72.30;;;50.80;;
62037;SDS011;47991;42.974;12.082;2023-05-08T21:49:34;66.80;;;48.00;;
62037;SDS011;47991;42.974;12.082;2023-05-08T21:52:15;68.40;;;47.30;;
62037;SDS011;47991;42.974;12.082;2023-05-08T21:55:01;65.90;;;49.40;;
62037;SDS011;47991;42.974;12.082;2023-05-08T21:57:47;65.20;;;48.20;;
62037;SDS011;47991;42.974;12.082;2023-05-08T22:00:14;67.00;;;48.50;;
62037;SDS011;47991;42.974;12.082;2023-05-08T22:02:55;70.90;;;49.40;;
62037;SDS011;47991;42.974;12.082;2023-05-08T22:05:36;66.10;;;47.00;;
62037;SDS011;47991;42.974;12.082;2023-05-08T22:08:03;69.80;;;47.60;;
62037;SDS011;47991;42.974;12.082;2023-05-08T22:10:30;67.20;;;46.70;;
62037;SDS011;47991;42.974;12.082;2023-05-08T22:13:11;65.90;;;48.20;;
62037;SDS011;47991;42.974;12.082;2023-05-08T22:15:51;63.80;;;47.00;;
62037;SDS011;47991;42.974;12.082;2023-05-08T22:18:18;65.00;;;44.20;;
62037;SDS011;47991;42.974;12.082;2023-05-08T22:20:59;64.40;;;46.30;;
62037;SDS011;47991;42.974;12.082;2023-05-08T22:23:26;64.30;;;45.10;;
62037;SDS011;47991;42.974;12.082;2023-05-08T22:26:06;59.10;;;41.30;;
62037;SDS011;47991;42.974;12.082;2023-05-08T22:28:47;61.80;;;44.30;;
62037;SDS011;47991;42.974;12.082;2023-05-08T22:31:14;61.80;;;44.80;;
62037;SDS011;47991;42.974;12.082;2023-05-08T22:33:55;60.90;;;44.10;;
62037;SDS011;47991;42.974;12.082;2023-05-08T22:36:23;58.40;;;42.90;;
62037;SDS011;47991;42.974;12.082;2023-05-08T22:38:50;57.00;;;42.10;;
62037;SDS011;47991;42.974;12.082;2023-05-08T22:41:31;56.30;;;41.20;;
62037;SDS011;47991;42.974;12.082;2023-05-08T22:43:59;60.60;;;43.40;;
62037;SDS011;47991;42.974;12.082;2023-05-08T22:46:26;58.30;;;42.10;;
62037;SDS011;47991;42.974;12.082;2023-05-08T22:49:07;62.00;;;44.00;;
62037;SDS011;47991;42.974;12.082;2023-05-08T22:51:34;57.50;;;41.90;;
62037;SDS011;47991;42.974;12.082;2023-05-08T22:54:15;57.50;;;41.10;;
62037;SDS011;47991;42.974;12.082;2023-05-08T22:56:42;56.30;;;41.90;;
62037;SDS011;47991;42.974;12.082;2023-05-08T22:59:23;51.00;;;39.30;;